createdAt,value
2022-09-11T05:03:11.832Z,0.60
2022-09-11T05:08:15.516Z,0.62
2022-09-11T05:13:19.281Z,0.70
2022-09-11T05:18:24.319Z,0.60
2022-09-11T05:23:28.081Z,0.60
2022-09-11T05:28:33.104Z,0.60
2022-09-11T05:33:38.558Z,0.60
2022-09-11T05:38:43.019Z,0.60
2022-09-11T05:43:47.337Z,1.02
2022-09-11T05:48:52.564Z,0.80
2022-09-11T05:53:58.152Z,0.60
2022-09-11T05:59:03.452Z,0.60
2022-09-11T06:04:12.420Z,0.50
2022-09-11T06:09:16.835Z,0.70
2022-09-11T06:14:21.543Z,0.50
2022-09-11T06:19:27.805Z,0.50
2022-09-11T06:24:32.163Z,0.70
2022-09-11T06:29:35.874Z,0.70
2022-09-11T06:34:40.924Z,0.50
2022-09-11T06:39:45.475Z,0.80
2022-09-11T06:44:53.887Z,0.90
2022-09-11T06:49:59.247Z,0.60
2022-09-11T06:55:04.447Z,0.80
2022-09-11T07:00:10.046Z,0.70
2022-09-11T07:05:16.677Z,0.70
2022-09-11T07:10:23.874Z,0.80
2022-09-11T07:15:28.035Z,0.95
2022-09-11T07:20:35.725Z,0.77
2022-09-11T07:25:40.664Z,0.77
2022-09-11T07:30:45.043Z,0.50
2022-09-11T07:35:51.372Z,0.90
2022-09-11T07:40:56.631Z,0.70
2022-09-11T07:46:00.494Z,0.50
2022-09-11T07:51:08.353Z,0.57
2022-09-11T07:56:14.836Z,0.52
2022-09-11T08:01:20.291Z,0.50
2022-09-11T08:06:27.115Z,0.50
2022-09-11T08:11:32.415Z,0.52
2022-09-11T08:16:37.008Z,0.40
2022-09-11T08:21:42.505Z,0.68
2022-09-11T08:26:48.932Z,0.20
2022-09-11T08:31:53.386Z,0.50
2022-09-11T08:36:59.486Z,0.40
2022-09-11T08:42:09.474Z,0.47
2022-09-11T08:47:19.498Z,0.30
2022-09-11T08:52:24.883Z,0.30
2022-09-11T08:57:40.369Z,0.22
2022-09-11T09:03:15.501Z,0.15
2022-09-11T09:13:51.900Z,0.25
2022-09-11T09:19:03.324Z,0.32
2022-09-11T09:24:19.385Z,0.32
2022-09-11T09:29:28.782Z,0.70
2022-09-11T09:34:37.627Z,0.40
2022-09-11T09:39:44.718Z,0.15
2022-09-11T09:45:10.632Z,0.30
2022-09-11T09:55:23.583Z,0.13
2022-09-11T10:00:27.604Z,0.28
2022-09-11T10:05:33.319Z,0.08
2022-09-11T10:10:39.926Z,0.20
2022-09-11T10:15:44.066Z,0.17
2022-09-11T10:20:48.258Z,0.55
2022-09-11T10:25:53.702Z,0.20
2022-09-11T10:31:00.254Z,0.50
2022-09-11T10:36:06.151Z,0.10
2022-09-11T10:41:19.260Z,0.50
2022-09-11T10:46:29.777Z,0.28
2022-09-11T10:51:35.289Z,0.20
2022-09-11T10:56:48.339Z,0.20
2022-09-11T11:01:52.366Z,0.15
2022-09-11T11:07:04.456Z,0.20
2022-09-11T11:12:40.061Z,0.25
2022-09-11T11:17:48.438Z,0.20
2022-09-11T11:23:05.888Z,0.25
2022-09-11T11:28:25.275Z,0.05
2022-09-11T11:33:51.290Z,0.10
2022-09-11T11:39:02.086Z,0.20
2022-09-11T11:44:12.910Z,0.20
2022-09-11T11:49:20.526Z,0.08
2022-09-11T11:54:28.835Z,0.00
2022-09-11T11:59:41.527Z,0.05
2022-09-11T12:04:50.740Z,0.20
2022-09-11T12:09:57.413Z,0.10
2022-09-11T12:15:06.718Z,0.17
2022-09-11T12:20:40.804Z,0.00
2022-09-11T12:26:06.111Z,0.17
2022-09-11T12:31:12.480Z,0.20
2022-09-11T12:36:20.016Z,0.35
2022-09-11T12:41:28.855Z,0.20
2022-09-11T12:47:12.659Z,0.10
2022-09-11T12:52:42.947Z,0.10
2022-09-11T12:57:46.659Z,0.10
2022-09-11T13:02:55.499Z,0.22
2022-09-11T13:08:04.252Z,0.20
2022-09-11T13:13:31.309Z,0.08
2022-09-11T13:18:35.507Z,0.10
2022-09-11T13:23:42.447Z,0.28
2022-09-11T13:28:49.297Z,0.00
2022-09-11T13:33:53.821Z,0.20
2022-09-11T13:39:03.043Z,0.00
2022-09-11T13:44:12.761Z,0.08
2022-09-11T13:49:28.799Z,0.10
2022-09-11T13:54:38.376Z,0.30
2022-09-11T13:59:48.249Z,0.08
2022-09-11T14:04:54.090Z,0.03
2022-09-11T14:10:04.241Z,0.17
2022-09-11T14:15:18.713Z,0.10
2022-09-11T14:20:23.179Z,0.20
2022-09-11T14:25:28.065Z,0.00
2022-09-11T14:30:37.529Z,0.20
2022-09-11T14:35:41.648Z,0.03
2022-09-11T14:40:52.917Z,0.20
2022-09-11T14:45:57.773Z,0.30
2022-09-11T14:51:09.896Z,0.15
2022-09-11T14:56:17.709Z,0.10
2022-09-11T15:01:21.320Z,0.22
2022-09-11T15:06:25.489Z,0.20
2022-09-11T15:11:31.206Z,0.10
2022-09-11T15:16:34.781Z,0.17
2022-09-11T15:21:38.631Z,0.17
2022-09-11T15:26:43.770Z,0.08
2022-09-11T15:31:48.053Z,0.20
2022-09-11T15:36:51.584Z,0.10
2022-09-11T15:41:57.351Z,0.10
2022-09-11T15:47:02.072Z,0.30
2022-09-11T15:52:05.856Z,0.00
2022-09-11T15:57:10.805Z,0.30
2022-09-11T16:02:14.675Z,0.00
2022-09-11T16:07:18.323Z,0.05
2022-09-11T16:17:31.278Z,0.40
2022-09-11T16:22:34.851Z,0.10
2022-09-11T16:27:39.946Z,0.10
2022-09-11T16:32:43.842Z,0.10
2022-09-11T16:37:47.407Z,0.10
2022-09-11T16:42:52.327Z,0.10
2022-09-11T16:47:57.137Z,0.00
2022-09-11T16:53:00.686Z,0.20
2022-09-11T16:58:05.701Z,0.30
2022-09-11T17:03:09.285Z,0.10
2022-09-11T17:08:12.780Z,0.10
2022-09-11T17:13:18.201Z,0.30
2022-09-11T17:18:21.746Z,0.10
2022-09-11T17:23:25.429Z,0.10
2022-09-11T17:28:30.274Z,0.10
2022-09-11T17:33:33.761Z,0.20
2022-09-11T17:38:37.899Z,0.20
2022-09-11T17:43:43.616Z,0.10
2022-09-11T17:48:47.780Z,0.10
2022-09-11T17:53:52.775Z,0.10
2022-09-11T17:58:59.690Z,0.25
2022-09-11T18:04:03.664Z,0.20
2022-09-11T18:09:12.019Z,0.65
2022-09-11T18:14:18.283Z,0.10
2022-09-11T18:19:21.848Z,0.30
2022-09-11T18:24:29.804Z,0.10
2022-09-11T18:29:35.218Z,0.20
2022-09-11T18:34:39.320Z,0.10
2022-09-11T18:39:42.913Z,0.30
2022-09-11T18:44:47.781Z,0.30
2022-09-11T18:49:51.482Z,0.10
2022-09-11T18:54:55.010Z,0.10
2022-09-11T19:00:01.418Z,0.10
2022-09-11T19:05:05.341Z,0.20
2022-09-11T19:10:09.635Z,0.35
2022-09-11T19:20:20.739Z,0.40
2022-09-11T19:25:25.378Z,0.32
2022-09-11T19:30:30.775Z,0.40
2022-09-11T19:35:34.625Z,0.28
2022-09-11T19:40:38.153Z,0.20
2022-09-11T19:45:44.024Z,0.40
2022-09-11T19:50:48.143Z,0.82
2022-09-11T19:55:54.488Z,0.40
2022-09-11T20:01:04.397Z,0.45
2022-09-11T20:06:10.261Z,0.30
2022-09-11T20:11:16.969Z,0.30
2022-09-11T20:16:24.499Z,0.40
2022-09-11T20:21:28.118Z,0.35
2022-09-11T20:26:33.626Z,0.30
2022-09-11T20:31:48.679Z,0.30
2022-09-11T20:36:52.450Z,0.37
2022-09-11T20:41:55.979Z,0.22
2022-09-11T20:47:01.040Z,0.37
2022-09-11T20:52:04.772Z,0.25
2022-09-11T20:57:08.352Z,0.30
2022-09-11T21:02:14.818Z,0.47
2022-09-11T21:07:18.456Z,0.60
2022-09-11T21:12:21.964Z,0.40
2022-09-11T21:17:26.853Z,0.20
2022-09-11T21:22:30.346Z,0.57
2022-09-11T21:27:33.924Z,0.47
2022-09-11T21:32:38.861Z,0.20
2022-09-11T21:37:42.415Z,0.40
2022-09-11T21:42:45.969Z,0.30
2022-09-11T21:47:50.940Z,0.43
2022-09-11T21:52:55.585Z,0.45
2022-09-11T21:57:59.444Z,0.40
2022-09-11T22:03:04.613Z,0.40
2022-09-11T22:08:08.745Z,0.40
2022-09-11T22:13:12.634Z,0.60
2022-09-11T22:18:18.959Z,0.43
2022-09-11T22:23:22.881Z,0.30
2022-09-11T22:28:27.065Z,0.50
